Weather at Robertsport/Cape Mount Airport

Public forecast

Using degrees Celsius for public forecast. Weather courtesy of forecast.io.

Closest aviation weather report (METAR) to Robertsport/Cape Mount Airport

Closest report is Roberts International Airport, 67.0 nm (124.1 km) ESE. Retrieved 2021/03/04 14:30 UTC (0 seconds ago):

GLRB 041430Z 30004KT 9999 BKN020 31/25 Q1008 NOSIG

Closest aviation forecast (TAF) to Robertsport/Cape Mount Airport

Forecast is more than 6 hours old.

Closest forecast is Roberts International Airport, 67.0 nm (124.1 km) ESE. Retrieved 2021/03/04 06:18 UTC (8 hours ago):

TAF COR TAF COR GLRB 040500Z 0406/0506 22010KT 999 BKN018 BECMG 0407/0409 06004KT 4000 BR SCT011 TEMPO 0410/0414 24008KT 9999 TS BKN016 FEW026CB BECMG 0416/0418 25011KT SCT015